createdAt,value
2018-02-17T00:00:58.463Z,29.30
2018-02-17T00:03:25.930Z,28.50
2018-02-17T00:05:53.386Z,25.33
2018-02-17T00:08:20.891Z,26.40
2018-02-17T00:10:48.345Z,25.37
2018-02-17T00:13:15.829Z,24.67
2018-02-17T00:15:43.321Z,25.03
2018-02-17T00:18:10.778Z,24.00
2018-02-17T00:20:38.236Z,24.07
2018-02-17T00:23:05.694Z,23.47
2018-02-17T00:25:33.166Z,22.80
2018-02-17T00:28:01.394Z,21.77
2018-02-17T00:30:29.617Z,21.00
2018-02-17T00:32:57.073Z,22.60
2018-02-17T00:35:24.534Z,21.03
2018-02-17T00:37:51.992Z,20.43
2018-02-17T00:40:19.447Z,20.07
2018-02-17T00:42:46.902Z,19.70
2018-02-17T00:45:14.369Z,20.27
2018-02-17T00:47:41.821Z,17.83
2018-02-17T00:50:09.285Z,18.80
2018-02-17T00:52:36.737Z,17.30
2018-02-17T00:55:04.965Z,16.10
2018-02-17T00:57:32.426Z,17.80
2018-02-17T00:59:59.887Z,16.27
2018-02-17T01:02:27.344Z,15.73
2018-02-17T01:04:54.913Z,15.67
2018-02-17T01:07:22.400Z,15.33
2018-02-17T01:09:49.869Z,14.90
2018-02-17T01:12:17.334Z,13.83
2018-02-17T01:14:44.809Z,15.30
2018-02-17T01:17:13.042Z,13.80
2018-02-17T01:19:40.525Z,13.50
2018-02-17T01:22:07.981Z,13.60
2018-02-17T01:24:35.446Z,12.87
2018-02-17T01:27:02.919Z,12.60
2018-02-17T01:29:31.164Z,12.33
2018-02-17T01:31:58.635Z,13.20
2018-02-17T01:34:26.102Z,12.40
2018-02-17T01:36:53.565Z,11.47
2018-02-17T01:39:21.021Z,12.23
2018-02-17T01:41:48.532Z,11.50
2018-02-17T01:44:15.997Z,11.97
2018-02-17T01:46:43.470Z,11.37
2018-02-17T01:49:10.926Z,11.60
2018-02-17T01:51:38.409Z,10.77
2018-02-17T01:54:05.870Z,10.47
2018-02-17T01:56:33.334Z,11.03
2018-02-17T01:59:00.835Z,10.97
2018-02-17T02:01:28.302Z,10.30
2018-02-17T02:03:55.762Z,9.97
2018-02-17T02:06:23.247Z,10.23
2018-02-17T02:08:50.698Z,9.77
2018-02-17T02:11:18.157Z,10.63
2018-02-17T02:13:45.606Z,9.67
2018-02-17T02:16:13.071Z,9.20
2018-02-17T02:18:40.529Z,8.83
2018-02-17T02:21:07.993Z,8.80
2018-02-17T02:23:35.452Z,8.30
2018-02-17T02:26:02.923Z,8.30
2018-02-17T02:28:30.366Z,8.20
2018-02-17T02:30:57.851Z,8.03
2018-02-17T02:33:25.286Z,7.70
2018-02-17T02:35:52.767Z,7.00
2018-02-17T02:38:20.986Z,8.37
2018-02-17T02:40:48.442Z,8.13
2018-02-17T02:43:15.934Z,6.90
2018-02-17T02:45:43.381Z,7.73
2018-02-17T02:48:10.838Z,8.07
2018-02-17T02:50:38.300Z,7.60
2018-02-17T02:53:05.757Z,6.30
2018-02-17T02:55:33.228Z,7.63
2018-02-17T02:58:01.478Z,6.20
2018-02-17T03:00:28.964Z,7.20
2018-02-17T03:02:56.428Z,6.80
2018-02-17T03:05:23.883Z,6.90
2018-02-17T03:07:51.345Z,6.40
2018-02-17T03:10:18.801Z,6.20
2018-02-17T03:12:46.300Z,6.30
2018-02-17T03:15:13.765Z,6.40
2018-02-17T03:17:41.465Z,6.60
2018-02-17T03:20:08.913Z,5.50
2018-02-17T03:22:36.385Z,5.77
2018-02-17T03:25:03.842Z,5.70
2018-02-17T03:27:31.303Z,6.03
2018-02-17T03:29:58.763Z,5.97
2018-02-17T03:32:26.213Z,5.40
2018-02-17T03:34:53.669Z,5.50
2018-02-17T03:37:21.130Z,5.73
2018-02-17T03:39:48.568Z,5.93
2018-02-17T03:42:16.043Z,5.20
2018-02-17T03:44:43.491Z,5.47
2018-02-17T03:47:10.936Z,5.67
2018-02-17T03:49:38.394Z,5.10
2018-02-17T03:52:05.838Z,4.57
2018-02-17T03:54:33.303Z,6.07
2018-02-17T03:57:00.814Z,4.83
2018-02-17T03:59:29.029Z,5.20
2018-02-17T04:01:56.481Z,5.07
2018-02-17T04:04:23.943Z,5.37
2018-02-17T04:06:51.415Z,4.97
2018-02-17T04:09:18.874Z,4.23
2018-02-17T04:11:46.326Z,4.43
2018-02-17T04:14:14.547Z,4.43
2018-02-17T04:16:42.014Z,4.50
2018-02-17T04:19:09.493Z,4.77
2018-02-17T04:21:36.946Z,4.63
2018-02-17T04:24:04.401Z,4.53
2018-02-17T04:26:31.888Z,4.43
2018-02-17T04:28:59.351Z,4.40
2018-02-17T04:31:26.799Z,4.03
2018-02-17T04:33:55.026Z,4.53
2018-02-17T04:36:23.241Z,4.43
2018-02-17T04:38:50.713Z,4.40
2018-02-17T04:41:19.087Z,4.37
2018-02-17T04:43:46.941Z,4.60
2018-02-17T04:46:14.397Z,4.30
2018-02-17T04:48:47.722Z,4.10
2018-02-17T04:54:22.797Z,3.87
2018-02-17T04:56:55.846Z,4.00
2018-02-17T04:59:26.221Z,3.70
2018-02-17T05:01:58.255Z,4.00
2018-02-17T05:04:26.866Z,4.50
2018-02-17T05:09:56.994Z,4.00
2018-02-17T05:12:25.202Z,3.80
2018-02-17T05:18:00.900Z,3.97
2018-02-17T05:20:44.744Z,3.87
2018-02-17T05:23:18.521Z,4.60
2018-02-17T05:25:57.297Z,3.63
2018-02-17T05:31:29.736Z,4.60
2018-02-17T05:34:12.070Z,3.70
2018-02-17T05:36:39.525Z,3.93
2018-02-17T05:39:06.983Z,4.17
2018-02-17T05:44:53.689Z,3.77
2018-02-17T05:47:23.913Z,3.97
2018-02-17T05:50:06.249Z,3.70
2018-02-17T05:52:33.708Z,3.73
2018-02-17T05:55:01.165Z,4.73
2018-02-17T05:57:28.629Z,3.50
2018-02-17T05:59:56.128Z,3.63
2018-02-17T06:02:23.602Z,4.00
2018-02-17T06:04:51.084Z,3.63
2018-02-17T06:07:19.395Z,3.67
2018-02-17T06:09:46.890Z,3.40
2018-02-17T06:12:14.375Z,3.67
2018-02-17T06:14:41.912Z,3.70
2018-02-17T06:17:09.390Z,3.63
2018-02-17T06:19:36.876Z,3.60
2018-02-17T06:22:05.146Z,3.87
2018-02-17T06:24:32.645Z,3.63
2018-02-17T06:27:00.142Z,3.70
2018-02-17T06:29:27.629Z,4.00
2018-02-17T06:31:55.932Z,4.00
2018-02-17T06:34:24.178Z,3.53
2018-02-17T06:36:51.714Z,3.60
2018-02-17T06:39:19.182Z,3.83
2018-02-17T06:41:46.679Z,3.27
2018-02-17T06:44:14.193Z,3.20
2018-02-17T06:46:42.458Z,3.37
2018-02-17T06:49:09.938Z,3.67
2018-02-17T06:51:38.206Z,3.73
2018-02-17T06:54:05.714Z,3.53
2018-02-17T06:56:33.238Z,3.17
2018-02-17T06:59:00.734Z,3.43
2018-02-17T07:01:28.221Z,3.67
2018-02-17T07:03:56.470Z,3.30
2018-02-17T07:06:23.954Z,3.70
2018-02-17T07:08:52.199Z,3.83
2018-02-17T07:11:19.721Z,3.50
2018-02-17T07:13:47.226Z,3.30
2018-02-17T07:16:14.735Z,3.30
2018-02-17T07:18:42.307Z,3.30
2018-02-17T07:21:09.830Z,3.30
2018-02-17T07:23:37.318Z,3.70
2018-02-17T07:26:04.786Z,3.67
2018-02-17T07:28:32.267Z,2.80
2018-02-17T07:30:59.758Z,3.60
2018-02-17T07:33:27.277Z,3.20
2018-02-17T07:35:55.512Z,2.90
2018-02-17T07:38:23.130Z,3.23
2018-02-17T07:40:50.598Z,2.90
2018-02-17T07:43:18.924Z,3.10
2018-02-17T07:45:46.479Z,3.20
2018-02-17T07:48:13.934Z,3.50
2018-02-17T07:50:42.190Z,3.17
2018-02-17T07:53:09.670Z,3.80
2018-02-17T07:55:37.159Z,3.43
2018-02-17T07:58:05.398Z,3.60
2018-02-17T08:00:32.891Z,3.40
2018-02-17T08:03:00.371Z,3.27
2018-02-17T08:05:28.646Z,3.03
2018-02-17T08:07:56.144Z,3.40
2018-02-17T08:10:24.486Z,3.73
2018-02-17T08:12:51.983Z,3.20
2018-02-17T08:15:20.232Z,2.90
2018-02-17T08:17:47.711Z,3.10
2018-02-17T08:20:15.206Z,2.83
2018-02-17T08:22:42.693Z,2.73
2018-02-17T08:25:10.222Z,3.40
2018-02-17T08:27:37.727Z,3.33
2018-02-17T08:30:05.292Z,3.27
2018-02-17T08:32:32.748Z,3.07
2018-02-17T08:35:00.246Z,3.10
2018-02-17T08:37:27.742Z,3.17
2018-02-17T08:39:55.996Z,3.27
2018-02-17T08:42:23.487Z,2.70
2018-02-17T08:44:51.755Z,3.10
2018-02-17T08:47:19.238Z,3.00
2018-02-17T08:49:47.518Z,2.87
2018-02-17T08:52:14.982Z,2.90
2018-02-17T08:54:42.447Z,2.70
2018-02-17T08:57:09.942Z,2.83
2018-02-17T08:59:38.214Z,3.00
2018-02-17T09:02:05.730Z,3.00
2018-02-17T09:04:33.242Z,3.30
2018-02-17T09:07:00.735Z,3.20
2018-02-17T09:09:28.994Z,3.10
2018-02-17T09:11:56.471Z,3.27
2018-02-17T09:14:23.990Z,3.17
2018-02-17T09:16:52.252Z,2.83
2018-02-17T09:19:19.771Z,3.00
2018-02-17T09:21:47.266Z,2.97
2018-02-17T09:24:14.784Z,3.07
2018-02-17T09:26:43.058Z,2.67
2018-02-17T09:29:10.533Z,2.60
2018-02-17T09:31:38.791Z,2.60
2018-02-17T09:34:06.273Z,2.80
2018-02-17T09:36:33.900Z,3.00
2018-02-17T09:39:01.386Z,3.17
2018-02-17T09:41:28.920Z,2.70
2018-02-17T09:43:57.174Z,2.93
2018-02-17T09:46:24.667Z,3.10
2018-02-17T09:48:52.915Z,2.80
2018-02-17T09:51:20.406Z,3.07
2018-02-17T09:53:47.879Z,2.60
2018-02-17T09:56:15.598Z,3.20
2018-02-17T09:58:43.833Z,3.00
2018-02-17T10:01:11.324Z,2.77
2018-02-17T10:03:38.806Z,2.50
2018-02-17T10:06:07.038Z,3.10
2018-02-17T10:08:34.559Z,3.50
2018-02-17T10:11:02.816Z,3.00
2018-02-17T10:13:30.320Z,3.00
2018-02-17T10:15:58.553Z,3.10
2018-02-17T10:18:26.050Z,3.17
2018-02-17T10:20:53.515Z,3.20
2018-02-17T10:23:21.017Z,2.40
2018-02-17T10:25:48.522Z,2.90
2018-02-17T10:28:16.029Z,2.77
2018-02-17T10:30:43.509Z,2.87
2018-02-17T10:33:10.994Z,2.57
2018-02-17T10:35:38.458Z,2.97
2018-02-17T10:38:05.965Z,2.90
2018-02-17T10:40:33.450Z,2.60
2018-02-17T10:43:00.922Z,2.90
2018-02-17T10:45:28.410Z,2.93
2018-02-17T10:47:55.878Z,2.73
2018-02-17T10:50:23.351Z,3.47
2018-02-17T10:52:50.925Z,2.60
2018-02-17T10:55:18.438Z,2.50
2018-02-17T10:57:46.747Z,2.80
2018-02-17T11:00:14.236Z,2.90
2018-02-17T11:02:41.730Z,2.80
2018-02-17T11:05:09.264Z,3.03
2018-02-17T11:07:36.754Z,2.40
2018-02-17T11:10:04.251Z,2.80
2018-02-17T11:12:31.767Z,3.00
2018-02-17T11:14:59.283Z,2.57
2018-02-17T11:17:26.810Z,2.90
2018-02-17T11:19:54.295Z,3.03
2018-02-17T11:22:21.825Z,3.20
2018-02-17T11:24:50.077Z,2.77
2018-02-17T11:27:17.546Z,2.87
2018-02-17T11:29:45.089Z,2.40
2018-02-17T11:32:13.316Z,2.90
2018-02-17T11:34:40.804Z,2.97
2018-02-17T11:37:08.289Z,2.93
2018-02-17T11:39:36.579Z,3.00
2018-02-17T11:42:04.051Z,2.87
2018-02-17T11:44:31.525Z,3.40
2018-02-17T11:46:59.798Z,2.90
2018-02-17T11:49:27.325Z,3.40
2018-02-17T11:51:54.844Z,2.90
2018-02-17T11:54:22.321Z,2.93
2018-02-17T11:56:50.614Z,3.10
2018-02-17T11:59:18.896Z,2.87
2018-02-17T12:01:46.362Z,2.83
2018-02-17T12:04:13.924Z,3.10
2018-02-17T12:06:41.356Z,3.43
2018-02-17T12:09:08.879Z,2.63
2018-02-17T12:11:36.371Z,3.70
2018-02-17T12:14:03.846Z,2.93
2018-02-17T12:16:31.334Z,3.10
2018-02-17T12:18:58.850Z,3.30
2018-02-17T12:21:26.324Z,2.80
2018-02-17T12:23:53.833Z,3.07
2018-02-17T12:26:21.354Z,3.87
2018-02-17T12:28:48.826Z,3.20
2018-02-17T12:31:16.306Z,3.63
2018-02-17T12:33:43.816Z,3.43
2018-02-17T12:36:11.339Z,3.33
2018-02-17T12:38:38.837Z,3.37
2018-02-17T12:41:06.319Z,3.80
2018-02-17T12:43:33.779Z,4.00
2018-02-17T12:46:01.267Z,4.03
2018-02-17T12:48:28.764Z,3.40
2018-02-17T12:50:56.271Z,3.83
2018-02-17T12:53:23.827Z,3.80
2018-02-17T12:55:51.266Z,4.27
2018-02-17T12:58:18.749Z,3.90
2018-02-17T13:00:46.248Z,4.30
2018-02-17T13:03:13.716Z,4.30
2018-02-17T13:05:41.206Z,4.60
2018-02-17T13:08:09.511Z,3.87
2018-02-17T13:10:36.996Z,4.90
2018-02-17T13:13:04.498Z,4.37
2018-02-17T13:15:32.014Z,4.40
2018-02-17T13:18:00.617Z,5.20
2018-02-17T13:20:28.111Z,5.20
2018-02-17T13:22:55.613Z,4.30
2018-02-17T13:25:23.111Z,5.20
2018-02-17T13:27:51.370Z,4.30
2018-02-17T13:30:18.842Z,4.60
2018-02-17T13:32:46.354Z,5.17
2018-02-17T13:35:13.954Z,5.30
2018-02-17T13:37:41.431Z,5.50
2018-02-17T13:40:08.918Z,4.90
2018-02-17T13:42:36.413Z,5.90
2018-02-17T13:45:03.968Z,6.50
2018-02-17T13:47:32.280Z,7.00
2018-02-17T13:50:00.563Z,8.17
2018-02-17T13:52:28.055Z,8.80
2018-02-17T13:54:55.550Z,10.23
2018-02-17T13:57:23.058Z,11.77
2018-02-17T13:59:50.531Z,11.43
2018-02-17T14:02:18.015Z,11.73
2018-02-17T14:04:46.262Z,11.50
2018-02-17T14:07:13.759Z,11.70
2018-02-17T14:09:41.237Z,11.00
2018-02-17T14:12:08.773Z,11.30
2018-02-17T14:14:36.262Z,11.40
2018-02-17T14:17:03.797Z,11.33
2018-02-17T14:19:31.314Z,11.37
2018-02-17T14:21:58.805Z,11.33
2018-02-17T14:24:27.130Z,12.13
2018-02-17T14:26:54.623Z,11.17
2018-02-17T14:29:22.170Z,11.90
2018-02-17T14:31:49.719Z,12.37
2018-02-17T14:34:17.994Z,11.43
2018-02-17T14:36:46.248Z,11.70
2018-02-17T14:39:13.758Z,11.97
2018-02-17T14:41:42.036Z,10.83
2018-02-17T14:44:10.281Z,12.03
2018-02-17T14:46:37.819Z,11.20
2018-02-17T14:49:06.082Z,10.93
2018-02-17T14:51:33.580Z,11.03
2018-02-17T14:54:01.083Z,10.93
2018-02-17T14:56:28.578Z,11.30
2018-02-17T14:58:56.075Z,11.37
2018-02-17T15:01:24.339Z,11.57
2018-02-17T15:03:51.866Z,11.87
2018-02-17T15:06:19.345Z,11.43
2018-02-17T15:08:46.849Z,13.57
2018-02-17T15:11:14.325Z,15.70
2018-02-17T15:13:41.814Z,16.40
2018-02-17T15:16:10.078Z,21.83
2018-02-17T15:18:37.572Z,24.70
2018-02-17T15:21:05.954Z,26.90
2018-02-17T15:23:33.456Z,29.20
2018-02-17T15:26:00.951Z,31.33
2018-02-17T15:28:28.443Z,31.87
2018-02-17T15:30:55.942Z,30.70
2018-02-17T15:33:23.427Z,33.30
2018-02-17T15:35:51.666Z,34.30
2018-02-17T15:38:19.262Z,33.17
2018-02-17T15:40:46.734Z,32.80
2018-02-17T15:43:14.247Z,33.17
2018-02-17T15:45:41.787Z,33.10
2018-02-17T15:48:10.064Z,32.57
2018-02-17T15:50:37.535Z,31.80
2018-02-17T15:53:05.057Z,33.10
2018-02-17T15:55:32.558Z,30.20
2018-02-17T15:58:00.040Z,29.33
2018-02-17T16:00:27.569Z,31.00
2018-02-17T16:02:55.078Z,30.17
2018-02-17T16:05:22.574Z,31.00
2018-02-17T16:07:50.831Z,28.63
2018-02-17T16:10:18.336Z,29.20
2018-02-17T16:12:46.598Z,29.40
2018-02-17T16:15:14.082Z,27.60
2018-02-17T16:17:42.371Z,27.63
2018-02-17T16:20:09.882Z,27.30
2018-02-17T16:22:37.376Z,26.37
2018-02-17T16:25:04.859Z,26.10
2018-02-17T16:27:32.436Z,25.93
2018-02-17T16:29:59.909Z,24.77
2018-02-17T16:32:27.396Z,25.50
2018-02-17T16:34:54.868Z,25.23
2018-02-17T16:37:22.373Z,24.87
2018-02-17T16:39:49.874Z,24.33
2018-02-17T16:42:17.370Z,24.97
2018-02-17T16:44:44.871Z,25.13
2018-02-17T16:47:12.386Z,23.80
2018-02-17T16:49:39.915Z,23.47
2018-02-17T16:52:07.415Z,24.53
2018-02-17T16:54:34.910Z,23.07
2018-02-17T16:57:02.494Z,23.10
2018-02-17T16:59:30.008Z,22.70
2018-02-17T17:01:57.531Z,22.80
2018-02-17T17:04:25.050Z,22.53
2018-02-17T17:06:52.534Z,23.60
2018-02-17T17:09:20.066Z,22.73
2018-02-17T17:11:48.418Z,22.23
2018-02-17T17:14:15.898Z,21.77
2018-02-17T17:16:43.416Z,22.27
2018-02-17T17:19:10.912Z,22.00
2018-02-17T17:21:38.443Z,22.60
2018-02-17T17:24:06.707Z,23.13
2018-02-17T17:26:34.192Z,22.87
2018-02-17T17:29:01.782Z,22.10
2018-02-17T17:31:29.311Z,23.30
2018-02-17T17:33:56.830Z,20.97
2018-02-17T17:36:24.332Z,23.20
2018-02-17T17:38:51.810Z,22.90
2018-02-17T17:41:19.312Z,22.13
2018-02-17T17:43:46.822Z,22.93
2018-02-17T17:46:14.302Z,21.50
2018-02-17T17:48:41.850Z,22.63
2018-02-17T17:51:10.096Z,21.70
2018-02-17T17:53:37.599Z,23.50
2018-02-17T17:56:05.879Z,21.87
2018-02-17T17:58:34.140Z,22.70
2018-02-17T18:01:01.664Z,22.90
2018-02-17T18:03:29.150Z,22.77
2018-02-17T18:05:56.632Z,20.53
2018-02-17T18:08:24.146Z,23.43
2018-02-17T18:10:51.682Z,21.67
2018-02-17T18:13:19.208Z,22.80
2018-02-17T18:15:47.482Z,22.10
2018-02-17T18:18:15.767Z,22.57
2018-02-17T18:20:43.274Z,21.40
2018-02-17T18:23:10.780Z,22.07
2018-02-17T18:25:38.309Z,20.43
2018-02-17T18:28:05.838Z,19.60
2018-02-17T18:30:33.319Z,22.13
2018-02-17T18:33:00.821Z,22.00
2018-02-17T18:35:28.340Z,21.37
2018-02-17T18:37:55.813Z,22.30
2018-02-17T18:40:23.404Z,21.10
2018-02-17T18:42:51.675Z,23.00
2018-02-17T18:45:19.191Z,21.63
2018-02-17T18:47:46.666Z,23.07
2018-02-17T18:50:14.186Z,22.33
2018-02-17T18:52:41.666Z,21.93
2018-02-17T18:55:09.177Z,22.57
2018-02-17T18:57:36.672Z,21.77
2018-02-17T19:00:04.195Z,24.43
2018-02-17T19:02:32.430Z,26.07
2018-02-17T19:04:59.972Z,26.97
2018-02-17T19:07:27.463Z,26.83
2018-02-17T19:09:54.998Z,29.23
2018-02-17T19:12:23.299Z,29.57
2018-02-17T19:14:50.802Z,27.80
2018-02-17T19:17:18.352Z,28.43
2018-02-17T19:19:45.874Z,30.30
2018-02-17T19:22:13.361Z,28.20
2018-02-17T19:24:40.854Z,28.40
2018-02-17T19:27:08.350Z,27.53
2018-02-17T19:29:35.866Z,27.63
2018-02-17T19:32:03.351Z,28.30
2018-02-17T19:34:31.615Z,27.90
2018-02-17T19:36:59.186Z,27.13
2018-02-17T19:39:27.471Z,29.30
2018-02-17T19:41:54.987Z,28.33
2018-02-17T19:44:23.254Z,28.10
2018-02-17T19:46:50.760Z,26.90
2018-02-17T19:49:18.263Z,25.83
2018-02-17T19:51:45.771Z,27.30
2018-02-17T19:54:14.033Z,27.70
2018-02-17T19:56:41.532Z,27.33
2018-02-17T19:59:09.794Z,26.57
2018-02-17T20:01:37.310Z,28.93
2018-02-17T20:04:04.845Z,29.10
2018-02-17T20:06:32.349Z,27.03
2018-02-17T20:09:00.680Z,27.43
2018-02-17T20:11:28.166Z,27.03
2018-02-17T20:13:55.695Z,26.17
2018-02-17T20:16:23.167Z,26.20
2018-02-17T20:18:50.642Z,26.43
2018-02-17T20:21:18.155Z,29.07
2018-02-17T20:23:45.699Z,25.90
2018-02-17T20:26:13.147Z,26.30
2018-02-17T20:28:40.647Z,25.63
2018-02-17T20:31:08.181Z,26.70
2018-02-17T20:33:35.733Z,27.17
2018-02-17T20:36:03.258Z,26.17
2018-02-17T20:38:30.784Z,26.30
2018-02-17T20:40:59.060Z,27.83
2018-02-17T20:43:27.367Z,27.90
2018-02-17T20:45:54.803Z,26.83
2018-02-17T20:48:22.298Z,25.73
2018-02-17T20:50:50.579Z,25.73
2018-02-17T20:53:18.859Z,25.83
2018-02-17T20:55:47.119Z,25.53
2018-02-17T20:58:14.697Z,26.07
2018-02-17T21:00:42.178Z,27.20
2018-02-17T21:03:09.728Z,26.53
2018-02-17T21:05:37.260Z,25.83
2018-02-17T21:08:05.548Z,25.53
2018-02-17T21:10:33.085Z,27.10
2018-02-17T21:13:00.608Z,25.80
2018-02-17T21:15:28.087Z,25.57
2018-02-17T21:17:55.607Z,24.40
2018-02-17T21:20:23.106Z,26.43
2018-02-17T21:22:50.598Z,26.07
2018-02-17T21:25:18.065Z,27.47
2018-02-17T21:27:45.577Z,27.50
2018-02-17T21:30:13.814Z,25.73
2018-02-17T21:32:41.294Z,27.60
2018-02-17T21:35:08.799Z,26.13
2018-02-17T21:37:36.322Z,27.40
2018-02-17T21:40:03.831Z,28.20
2018-02-17T21:42:31.317Z,26.80
2018-02-17T21:44:58.837Z,27.67
2018-02-17T21:47:26.334Z,26.30
2018-02-17T21:49:54.496Z,25.90
2018-02-17T21:52:21.982Z,26.17
2018-02-17T21:54:49.480Z,27.90
2018-02-17T21:57:16.992Z,28.63
2018-02-17T21:59:44.495Z,27.10
2018-02-17T22:02:12.007Z,26.57
2018-02-17T22:04:39.485Z,26.73
2018-02-17T22:07:07.734Z,26.97
2018-02-17T22:09:35.251Z,27.73
2018-02-17T22:12:03.524Z,26.83
2018-02-17T22:14:31.804Z,26.57
2018-02-17T22:16:59.307Z,25.40
2018-02-17T22:19:26.802Z,27.63
2018-02-17T22:21:54.318Z,26.67
2018-02-17T22:24:21.838Z,27.87
2018-02-17T22:26:49.342Z,27.17
2018-02-17T22:29:16.858Z,26.90
2018-02-17T22:31:45.127Z,27.40
2018-02-17T22:34:12.635Z,27.33
2018-02-17T22:36:40.181Z,27.27
2018-02-17T22:39:08.468Z,25.40
2018-02-17T22:41:36.736Z,25.90
2018-02-17T22:44:04.250Z,27.40
2018-02-17T22:46:31.768Z,28.00
2018-02-17T22:48:59.795Z,28.23
2018-02-17T22:51:27.306Z,25.97
2018-02-17T22:53:54.802Z,25.30
2018-02-17T22:56:22.304Z,27.97
2018-02-17T22:58:50.554Z,29.63
2018-02-17T23:01:18.058Z,31.43
2018-02-17T23:03:46.304Z,33.10
2018-02-17T23:06:13.897Z,37.93
2018-02-17T23:08:42.151Z,39.20
2018-02-17T23:11:09.710Z,41.90
2018-02-17T23:13:37.198Z,42.30
2018-02-17T23:16:04.788Z,46.20
2018-02-17T23:18:32.319Z,47.27
2018-02-17T23:20:59.818Z,48.40
2018-02-17T23:23:27.297Z,49.90
2018-02-17T23:25:54.810Z,50.07
2018-02-17T23:28:23.069Z,47.97
2018-02-17T23:30:50.588Z,49.37
2018-02-17T23:33:18.893Z,50.77
2018-02-17T23:35:46.354Z,49.80
2018-02-17T23:38:13.867Z,47.73
2018-02-17T23:40:42.168Z,48.47
2018-02-17T23:43:09.655Z,47.13
2018-02-17T23:45:37.931Z,46.00
2018-02-17T23:48:06.202Z,44.37
2018-02-17T23:50:33.698Z,43.77
2018-02-17T23:53:02.016Z,43.10
2018-02-17T23:55:29.509Z,42.73
2018-02-17T23:57:57.013Z,43.10
